Time;durP1;ratioP1;P1;durP2;ratioP2;P2;SDS_P1;SDS_P2;PMS_P1;PMS_P2;Temp;Humidity;BMP_temperature;BMP_pressure;BME280_temperature;BME280_humidity;BME280_pressure;Samples;Min_cycle;Max_cycle;Signal;HPM_P1;HPM_P2
2023/06/05 00:00:16;;;;;;;;;7.00;4.00;;;;;14.00;66.61;102416.19;5043093;28;9854;-68
2023/06/05 00:02:42;;;;;;;;;4.50;4.50;;;;;13.97;67.33;102418.41;5046638;28;9697;-68
2023/06/05 00:05:10;;;;;;;;;5.00;5.00;;;;;13.97;67.18;102419.25;5029494;28;9899;-68
2023/06/05 00:07:39;;;;;;;;;3.50;3.50;;;;;13.87;67.19;102413.22;5050183;28;10786;-67
2023/06/05 00:10:07;;;;;;;;;5.75;5.25;;;;;13.87;67.44;102415.94;5049666;28;9775;-66
2023/06/05 00:12:34;;;;;;;;;4.75;4.50;;;;;13.86;67.84;102414.25;5052785;28;9763;-67
2023/06/05 00:15:01;;;;;;;;;4.50;4.25;;;;;13.79;67.38;102413.28;5051086;28;9784;-66
2023/06/05 00:17:30;;;;;;;;;6.25;5.00;;;;;13.78;67.28;102412.44;5035171;28;9861;-67
2023/06/05 00:20:00;;;;;;;;;7.25;4.00;;;;;13.75;67.81;102411.94;5034518;28;9869;-67
2023/06/05 00:22:28;;;;;;;;;6.00;4.00;;;;;13.68;67.42;102411.78;5046985;28;9783;-68
2023/06/05 00:24:54;;;;;;;;;4.50;3.75;;;;;13.60;68.06;102404.53;5052732;28;9803;-68
2023/06/05 00:27:21;;;;;;;;;5.25;5.25;;;;;13.54;68.00;102401.72;5051585;28;9677;-67
2023/06/05 00:29:48;;;;;;;;;7.00;5.00;;;;;13.58;68.21;102403.91;5052382;28;9686;-67
2023/06/05 00:32:15;;;;;;;;;6.25;6.00;;;;;13.66;68.13;102402.19;5050761;28;9775;-66
2023/06/05 00:34:41;;;;;;;;;6.50;6.50;;;;;13.64;67.90;102404.19;5035701;28;9916;-67
2023/06/05 00:37:08;;;;;;;;;4.00;4.00;;;;;13.64;68.45;102399.63;5032164;28;9909;-67
2023/06/05 00:39:34;;;;;;;;;5.00;4.00;;;;;13.65;67.60;102401.31;5048597;28;9908;-66
2023/06/05 00:42:01;;;;;;;;;3.50;3.50;;;;;13.54;67.53;102399.84;5035377;28;9929;-68
2023/06/05 00:44:27;;;;;;;;;5.75;4.50;;;;;13.44;68.07;102398.38;5030057;28;10691;-67
2023/06/05 00:46:54;;;;;;;;;7.00;4.50;;;;;13.44;68.50;102393.78;5042961;28;9960;-67
2023/06/05 00:49:20;;;;;;;;;4.75;3.50;;;;;13.41;68.47;102391.47;5047829;28;9935;-67
2023/06/05 00:51:49;;;;;;;;;3.75;3.75;;;;;13.48;68.63;102395.13;5047435;28;10131;-66
2023/06/05 00:54:15;;;;;;;;;5.00;5.00;;;;;13.48;68.26;102400.53;5029571;28;9946;-68
2023/06/05 00:56:43;;;;;;;;;3.00;3.00;;;;;13.52;68.86;102396.47;5040838;28;10019;-67
2023/06/05 00:59:12;;;;;;;;;5.00;3.50;;;;;13.56;68.71;102403.22;5029604;28;9938;-68
2023/06/05 01:01:38;;;;;;;;;5.25;4.75;;;;;13.52;68.47;102401.88;5034971;28;9908;-67
2023/06/05 01:04:05;;;;;;;;;3.00;3.00;;;;;13.52;68.80;102399.16;5034891;28;10002;-67
2023/06/05 01:06:33;;;;;;;;;7.00;5.75;;;;;13.53;68.54;102400.00;5050698;28;9863;-69
2023/06/05 01:09:01;;;;;;;;;5.50;3.25;;;;;13.55;68.59;102400.69;5051130;28;9963;-68
2023/06/05 01:11:45;;;;;;;;;4.50;4.50;;;;;13.51;68.37;102399.34;5048227;28;9862;-68
2023/06/05 01:14:22;;;;;;;;;3.75;3.75;;;;;13.49;68.89;102396.84;5034372;28;9902;-67
2023/06/05 01:16:54;;;;;;;;;5.50;5.00;;;;;13.49;68.16;102390.56;5049185;28;9841;-68
2023/06/05 01:19:24;;;;;;;;;6.75;5.00;;;;;13.41;68.95;102383.34;5033636;28;10038;-67
2023/06/05 01:21:51;;;;;;;;;2.75;2.75;;;;;13.33;68.84;102391.50;5047951;28;10049;-67
2023/06/05 01:24:22;;;;;;;;;5.00;5.00;;;;;13.32;68.88;102385.22;5048119;28;9689;-68
2023/06/05 01:27:02;;;;;;;;;5.75;5.50;;;;;13.29;69.38;102382.03;5050673;28;9746;-68
2023/06/05 01:29:37;;;;;;;;;5.00;5.00;;;;;13.28;69.03;102388.44;5048876;28;9951;-68
2023/06/05 01:32:15;;;;;;;;;5.75;4.50;;;;;13.15;69.45;102380.84;5029896;28;10020;-67
2023/06/05 01:34:44;;;;;;;;;4.75;4.75;;;;;13.15;69.73;102385.41;5037607;28;10874;-67
2023/06/05 01:37:14;;;;;;;;;3.00;3.00;;;;;13.18;69.65;102393.19;5050316;28;9948;-67
2023/06/05 01:39:43;;;;;;;;;5.00;5.00;;;;;13.24;69.75;102379.00;5046732;28;10026;-67
2023/06/05 01:42:11;;;;;;;;;5.25;5.00;;;;;13.33;69.71;102383.38;5046895;28;10038;-67
2023/06/05 01:44:38;;;;;;;;;6.50;4.75;;;;;13.38;69.24;102377.44;5047442;28;10107;-68
2023/06/05 01:47:06;;;;;;;;;5.25;4.50;;;;;13.38;68.64;102372.88;5050667;28;9832;-68
2023/06/05 01:49:32;;;;;;;;;3.75;3.75;;;;;13.30;68.72;102368.34;5033284;28;10575;-67
2023/06/05 01:51:59;;;;;;;;;5.00;4.00;;;;;13.19;68.67;102371.38;5051206;28;10085;-68
2023/06/05 01:54:26;;;;;;;;;2.75;2.75;;;;;13.16;69.39;102362.75;5047230;28;9901;-68
2023/06/05 01:56:52;;;;;;;;;3.00;3.00;;;;;13.23;69.28;102369.19;5032267;28;9877;-68
2023/06/05 01:59:19;;;;;;;;;4.75;4.75;;;;;13.19;69.05;102357.84;5026194;28;9875;-68
2023/06/05 02:01:46;;;;;;;;;4.25;4.00;;;;;13.24;69.54;102369.03;5033195;28;9958;-67
2023/06/05 02:04:16;;;;;;;;;4.75;4.75;;;;;13.27;68.78;102360.56;5032414;28;10003;-67
2023/06/05 02:06:43;;;;;;;;;6.00;4.00;;;;;13.21;69.01;102360.41;5033369;28;10075;-67
2023/06/05 02:09:12;;;;;;;;;4.75;4.75;;;;;13.20;69.71;102358.69;5026730;28;10163;-67
2023/06/05 02:11:42;;;;;;;;;3.50;3.00;;;;;13.25;69.54;102362.63;5031378;28;10831;-67
2023/06/05 02:14:12;;;;;;;;;6.00;5.00;;;;;13.27;69.11;102357.84;5047189;28;9899;-67
2023/06/05 02:16:40;;;;;;;;;7.00;7.00;;;;;13.16;69.59;102358.19;5032805;28;9928;-67
2023/06/05 02:19:10;;;;;;;;;6.75;6.00;;;;;13.19;69.97;102362.44;5050435;28;10036;-67
2023/06/05 02:21:37;;;;;;;;;2.50;2.50;;;;;13.24;69.82;102365.47;5051777;28;10011;-68
2023/06/05 02:24:04;;;;;;;;;5.75;5.00;;;;;13.21;69.27;102360.41;5029799;28;10604;-68
2023/06/05 02:26:31;;;;;;;;;5.25;3.50;;;;;13.15;69.65;102356.53;5046113;28;9919;-68
2023/06/05 02:28:58;;;;;;;;;2.75;1.75;;;;;13.24;69.60;102352.78;5046338;28;9764;-68
2023/06/05 02:31:25;;;;;;;;;6.50;5.00;;;;;13.29;69.36;102352.28;5047643;28;10117;-68
2023/06/05 02:33:55;;;;;;;;;8.00;5.00;;;;;13.26;69.65;102358.88;5048582;28;10001;-68
2023/06/05 02:36:24;;;;;;;;;9.50;4.50;;;;;13.20;69.49;102348.72;5050794;28;9840;-68
2023/06/05 02:38:52;;;;;;;;;5.50;4.75;;;;;13.24;69.47;102362.78;5032621;28;10039;-67
2023/06/05 02:41:21;;;;;;;;;4.50;4.50;;;;;13.22;69.61;102351.28;5028077;28;9917;-68
2023/06/05 02:43:48;;;;;;;;;3.00;2.50;;;;;13.24;69.61;102358.19;5043718;28;9903;-67
2023/06/05 02:46:14;;;;;;;;;5.25;4.50;;;;;13.30;69.55;102352.09;5031752;28;9749;-67
2023/06/05 02:48:42;;;;;;;;;2.50;2.50;;;;;13.35;69.12;102349.72;5050534;28;9915;-68
2023/06/05 02:51:10;;;;;;;;;5.00;5.00;;;;;13.40;68.97;102346.47;5048021;28;10011;-68
2023/06/05 02:53:39;;;;;;;;;7.50;7.50;;;;;13.30;69.15;102349.41;5030388;28;10589;-68
2023/06/05 02:56:05;;;;;;;;;5.00;5.00;;;;;13.24;69.54;102350.09;5044445;28;10075;-68
2023/06/05 02:58:33;;;;;;;;;3.75;3.75;;;;;13.25;69.85;102345.56;5041785;28;10053;-67
2023/06/05 03:01:01;;;;;;;;;8.00;6.75;;;;;13.20;69.47;102343.31;5032925;28;9980;-67
2023/06/05 03:03:34;;;;;;;;;7.75;6.25;;;;;13.09;69.97;102347.25;5031502;28;9914;-68
2023/06/05 03:06:05;;;;;;;;;4.00;4.00;;;;;13.14;69.85;102348.59;5046552;28;10075;-67
2023/06/05 03:08:34;;;;;;;;;5.25;5.25;;;;;13.17;69.71;102340.97;5048603;28;10053;-68
2023/06/05 03:11:05;;;;;;;;;5.50;4.25;;;;;13.15;69.84;102350.28;5025267;28;9755;-67
2023/06/05 03:13:32;;;;;;;;;6.25;6.25;;;;;13.17;69.81;102342.84;5045991;28;9919;-68
2023/06/05 03:16:03;;;;;;;;;5.00;5.00;;;;;13.23;69.94;102342.16;5045057;28;10120;-68
2023/06/05 03:18:34;;;;;;;;;7.25;7.25;;;;;13.29;69.74;102339.63;5049107;28;9928;-68
2023/06/05 03:21:01;;;;;;;;;6.00;6.00;;;;;13.31;69.08;102342.97;5042706;28;10150;-68
2023/06/05 03:23:28;;;;;;;;;9.50;8.50;;;;;13.32;69.27;102339.25;5032301;28;10006;-67
2023/06/05 03:25:57;;;;;;;;;5.75;5.75;;;;;13.28;68.67;102337.06;5047589;28;10200;-67
2023/06/05 03:28:25;;;;;;;;;7.50;7.50;;;;;13.19;68.95;102341.63;5032442;28;9908;-68
2023/06/05 03:30:55;;;;;;;;;5.00;5.00;;;;;13.18;69.84;102334.56;5029264;28;9898;-67
2023/06/05 03:33:25;;;;;;;;;5.00;4.00;;;;;13.26;69.79;102339.13;5031672;28;9944;-68
2023/06/05 03:35:53;;;;;;;;;5.00;5.00;;;;;13.28;69.09;102339.78;5041244;28;10111;-67
2023/06/05 03:38:19;;;;;;;;;8.25;7.25;;;;;13.10;69.18;102335.41;5028305;28;9857;-68
2023/06/05 03:40:46;;;;;;;;;7.00;7.00;;;;;13.05;69.54;102336.97;5049715;28;10036;-68
2023/06/05 03:43:16;;;;;;;;;3.50;3.50;;;;;13.01;70.08;102331.06;5018076;28;10045;-67
2023/06/05 03:45:43;;;;;;;;;4.50;4.25;;;;;13.03;70.41;102333.59;5031949;28;9839;-70
2023/06/05 03:48:11;;;;;;;;;2.25;2.00;;;;;13.02;69.43;102334.59;5032065;28;10018;-69
2023/06/05 03:50:41;;;;;;;;;6.00;4.75;;;;;13.01;69.57;102344.56;5030732;28;10011;-69
2023/06/05 03:53:08;;;;;;;;;5.25;4.75;;;;;12.99;69.72;102334.94;5046315;28;10043;-69
2023/06/05 03:55:46;;;;;;;;;5.00;5.00;;;;;13.09;69.96;102336.44;5044193;28;9990;-69
2023/06/05 03:58:19;;;;;;;;;8.75;6.00;;;;;13.10;69.44;102339.97;5031669;28;10133;-68
2023/06/05 04:00:51;;;;;;;;;4.00;4.00;;;;;13.10;68.97;102334.56;5048100;28;10083;-69
2023/06/05 04:03:19;;;;;;;;;5.25;3.25;;;;;13.07;68.93;102337.63;5048987;28;10045;-67
2023/06/05 04:05:47;;;;;;;;;4.50;4.50;;;;;13.06;68.98;102327.84;5046660;28;11449;-68
2023/06/05 04:08:13;;;;;;;;;6.00;6.00;;;;;13.03;69.35;102333.59;5013830;28;10031;-68
2023/06/05 04:10:40;;;;;;;;;8.75;5.50;;;;;13.02;69.25;102335.44;5042410;28;10097;-68
2023/06/05 04:13:07;;;;;;;;;5.75;4.50;;;;;13.05;68.98;102331.56;5047896;28;10062;-68
2023/06/05 04:15:35;;;;;;;;;6.50;6.00;;;;;13.09;69.42;102341.84;5030959;28;10033;-68
2023/06/05 04:18:03;;;;;;;;;5.00;4.00;;;;;13.13;68.53;102344.22;5030573;28;10652;-68
2023/06/05 04:20:30;;;;;;;;;4.00;4.00;;;;;13.01;68.43;102341.03;5047554;28;9874;-68
2023/06/05 04:22:56;;;;;;;;;3.25;2.50;;;;;13.01;68.91;102343.75;5024664;28;9776;-69
2023/06/05 04:25:28;;;;;;;;;3.00;3.00;;;;;12.96;68.14;102351.50;5044002;28;10676;-69
2023/06/05 04:27:57;;;;;;;;;5.25;5.00;;;;;12.89;68.65;102353.22;5044716;28;9763;-68
2023/06/05 04:30:24;;;;;;;;;2.00;2.00;;;;;12.87;68.70;102354.22;5036551;28;9769;-69
2023/06/05 04:32:54;;;;;;;;;9.00;5.50;;;;;12.84;68.79;102348.31;5029093;28;9930;-69
2023/06/05 04:35:22;;;;;;;;;3.00;3.00;;;;;12.91;69.37;102343.91;5030626;28;10083;-68
2023/06/05 04:37:50;;;;;;;;;4.75;4.50;;;;;12.99;68.20;102349.31;5030848;28;9950;-69
2023/06/05 04:40:20;;;;;;;;;3.50;3.50;;;;;13.03;68.45;102347.09;5013132;28;10011;-68
2023/06/05 04:42:48;;;;;;;;;2.50;2.50;;;;;13.10;68.51;102348.94;5046119;28;9926;-68
2023/06/05 04:45:16;;;;;;;;;2.00;2.00;;;;;13.10;68.16;102351.63;5024591;28;9866;-69
2023/06/05 04:47:45;;;;;;;;;2.75;2.75;;;;;13.13;68.27;102361.28;5037998;28;9874;-69
2023/06/05 04:50:24;;;;;;;;;4.75;3.75;;;;;13.19;68.59;102355.16;5015177;28;9848;-68
2023/06/05 04:52:53;;;;;;;;;2.25;1.25;;;;;13.25;68.43;102357.22;5033968;28;9890;-69
2023/06/05 04:55:21;;;;;;;;;9.00;3.75;;;;;13.24;68.20;102358.19;5021522;28;9846;-68
2023/06/05 04:57:51;;;;;;;;;5.00;2.25;;;;;13.24;67.74;102360.91;5030749;28;9888;-68
2023/06/05 05:00:17;;;;;;;;;3.50;3.50;;;;;13.24;67.63;102358.19;5048481;28;9862;-69
2023/06/05 05:02:45;;;;;;;;;2.50;2.00;;;;;13.24;67.81;102366.31;5025774;28;9860;-69
2023/06/05 05:05:13;;;;;;;;;3.50;3.50;;;;;13.20;67.92;102361.41;5028226;28;9944;-69
2023/06/05 05:07:42;;;;;;;;;7.75;6.00;;;;;13.10;67.67;102365.16;5028456;28;9772;-69
2023/06/05 05:10:10;;;;;;;;;3.25;2.00;;;;;13.06;68.27;102368.38;5030116;28;10538;-69
2023/06/05 05:12:38;;;;;;;;;4.25;4.25;;;;;13.08;68.11;102367.22;5029261;28;9805;-69
2023/06/05 05:15:06;;;;;;;;;5.00;5.00;;;;;13.04;67.75;102365.84;5042654;28;10033;-69
2023/06/05 05:17:32;;;;;;;;;6.00;3.75;;;;;13.05;67.70;102367.53;5028142;28;9870;-68
2023/06/05 05:19:59;;;;;;;;;6.00;4.50;;;;;13.03;67.67;102366.84;5023862;28;12127;-68
2023/06/05 05:22:28;;;;;;;;;3.50;3.50;;;;;13.06;68.28;102363.81;5033170;28;10647;-68
2023/06/05 05:24:55;;;;;;;;;5.00;2.00;;;;;13.19;68.45;102363.25;5011652;28;9758;-68
2023/06/05 05:27:24;;;;;;;;;5.00;5.00;;;;;13.19;67.64;102359.72;5035605;28;9684;-69
2023/06/05 05:29:51;;;;;;;;;2.25;2.25;;;;;13.15;67.65;102361.09;5040520;28;9854;-69
2023/06/05 05:32:19;;;;;;;;;5.50;4.50;;;;;13.15;67.82;102361.94;5028847;28;9859;-69
2023/06/05 05:34:47;;;;;;;;;3.25;2.00;;;;;13.20;67.75;102359.53;5026483;28;9893;-69
2023/06/05 05:37:14;;;;;;;;;2.50;2.50;;;;;13.23;67.75;102358.38;5011318;28;9686;-70
2023/06/05 05:39:41;;;;;;;;;3.00;3.00;;;;;13.27;68.06;102355.16;5028147;28;9759;-70
2023/06/05 05:42:08;;;;;;;;;3.00;2.75;;;;;13.35;68.38;102357.81;5046089;28;9674;-70
2023/06/05 05:44:35;;;;;;;;;2.75;2.00;;;;;13.33;68.21;102359.03;5029267;28;9809;-70
2023/06/05 05:47:02;;;;;;;;;4.25;4.00;;;;;13.27;68.20;102354.31;5030656;28;9875;-69
2023/06/05 05:49:29;;;;;;;;;8.25;6.75;;;;;13.24;68.62;102351.94;5032527;28;9950;-72
2023/06/05 05:51:55;;;;;;;;;4.50;4.25;;;;;13.20;69.17;102356.84;5027596;28;9905;-68
2023/06/05 05:54:26;;;;;;;;;6.00;6.00;;;;;13.20;69.64;102356.84;5048136;28;9956;-71
2023/06/05 05:56:57;;;;;;;;;3.00;3.00;;;;;13.33;68.75;102365.28;5043739;28;9855;-68
2023/06/05 05:59:24;;;;;;;;;3.50;2.00;;;;;13.32;68.15;102362.75;5046890;28;9579;-69
2023/06/05 06:01:51;;;;;;;;;3.50;3.25;;;;;13.25;68.75;102359.91;5039686;28;9668;-69
2023/06/05 06:04:18;;;;;;;;;1.25;1.25;;;;;13.33;68.71;102362.59;5032555;28;9668;-69
2023/06/05 06:06:47;;;;;;;;;1.25;1.25;;;;;13.39;68.76;102365.59;5029042;28;9655;-70
2023/06/05 06:09:14;;;;;;;;;3.00;2.00;;;;;13.48;68.62;102359.97;5049732;28;10391;-70
2023/06/05 06:11:42;;;;;;;;;4.00;4.00;;;;;13.51;68.18;102365.03;5031301;28;9791;-69
2023/06/05 06:14:12;;;;;;;;;3.50;3.50;;;;;13.54;68.11;102363.84;5033427;28;9763;-69
2023/06/05 06:16:40;;;;;;;;;5.00;4.00;;;;;13.53;67.82;102360.31;5016899;28;9927;-68
2023/06/05 06:19:06;;;;;;;;;5.25;2.50;;;;;13.53;67.39;102363.00;5050271;28;9694;-69
2023/06/05 06:21:33;;;;;;;;;2.50;2.50;;;;;13.56;67.72;102361.78;5033304;28;9751;-69
2023/06/05 06:23:59;;;;;;;;;3.75;2.50;;;;;13.65;67.38;102368.00;5050650;28;9689;-69
2023/06/05 06:26:26;;;;;;;;;3.50;3.50;;;;;13.66;67.16;102367.00;5032377;28;9774;-69
2023/06/05 06:28:55;;;;;;;;;2.50;1.75;;;;;13.70;67.12;102371.03;5035729;28;10258;-70
2023/06/05 06:31:22;;;;;;;;;2.75;1.25;;;;;13.72;66.87;102366.28;5050007;28;10386;-69
2023/06/05 06:33:48;;;;;;;;;1.00;1.00;;;;;13.83;66.64;102365.88;5051097;28;9592;-69
2023/06/05 06:36:17;;;;;;;;;3.50;3.50;;;;;13.97;66.41;102370.50;5046652;28;11577;-68
2023/06/05 06:38:43;;;;;;;;;3.00;3.00;;;;;14.03;65.38;102371.69;5051146;28;9674;-69
2023/06/05 06:41:10;;;;;;;;;2.50;2.00;;;;;14.03;66.00;102371.69;5050299;28;9803;-69
2023/06/05 06:43:36;;;;;;;;;6.25;5.50;;;;;14.06;65.38;102374.88;5050992;28;9603;-69
2023/06/05 06:46:04;;;;;;;;;2.75;2.75;;;;;14.05;65.63;102361.50;5032537;28;9625;-69
2023/06/05 06:48:32;;;;;;;;;2.75;2.25;;;;;14.03;65.57;102367.09;5051074;28;9602;-69
2023/06/05 06:50:59;;;;;;;;;3.00;2.00;;;;;14.01;65.75;102368.28;5047351;28;9561;-68
2023/06/05 06:53:26;;;;;;;;;3.25;2.75;;;;;14.00;65.73;102372.03;5049075;28;9610;-69
2023/06/05 06:55:52;;;;;;;;;1.75;1.75;;;;;14.01;65.58;102368.28;5043835;28;9382;-69
2023/06/05 06:58:19;;;;;;;;;3.00;3.00;;;;;13.96;65.59;102374.25;5048783;28;9497;-69
2023/06/05 07:00:45;;;;;;;;;2.00;2.00;;;;;13.94;65.41;102381.72;5049936;28;9584;-69
2023/06/05 07:03:12;;;;;;;;;3.50;1.50;;;;;13.93;65.32;102377.31;5047586;28;9516;-70
2023/06/05 07:05:39;;;;;;;;;2.00;2.00;;;;;13.97;65.69;102378.63;5021452;28;9559;-69
2023/06/05 07:08:05;;;;;;;;;1.25;1.25;;;;;14.02;65.64;102388.94;5048453;28;9653;-69
2023/06/05 07:10:32;;;;;;;;;2.00;2.00;;;;;14.04;65.47;102390.44;5049066;28;9433;-69
2023/06/05 07:12:58;;;;;;;;;2.00;2.00;;;;;14.05;65.21;102400.25;5032152;28;9526;-68
2023/06/05 07:15:25;;;;;;;;;4.00;1.50;;;;;14.03;64.97;102394.19;5050004;28;9598;-69
2023/06/05 07:17:51;;;;;;;;;1.00;1.00;;;;;14.05;64.82;102397.53;5048305;28;9562;-69
2023/06/05 07:20:18;;;;;;;;;3.50;1.00;;;;;14.06;65.02;102395.69;5028814;28;9643;-68
2023/06/05 07:22:45;;;;;;;;;2.00;2.00;;;;;14.10;64.79;102397.84;5048976;28;9504;-69
2023/06/05 07:25:13;;;;;;;;;1.75;1.00;;;;;14.20;64.38;102399.47;5049121;28;9553;-68
2023/06/05 07:27:40;;;;;;;;;2.00;2.00;;;;;14.10;64.32;102391.59;5046356;28;9373;-69
2023/06/05 07:30:08;;;;;;;;;1.00;1.00;;;;;14.11;64.63;102401.41;5048983;28;9495;-68
2023/06/05 07:32:34;;;;;;;;;4.50;3.25;;;;;14.11;64.70;102398.69;5049746;28;10323;-71
2023/06/05 07:35:02;;;;;;;;;2.00;2.00;;;;;14.17;64.73;102399.84;5048489;28;10306;-69
2023/06/05 07:37:28;;;;;;;;;3.00;1.00;;;;;14.19;64.70;102398.63;5049389;28;9333;-68
2023/06/05 07:39:55;;;;;;;;;3.67;2.33;;;;;14.29;64.38;102398.38;5049629;28;9371;-69
2023/06/05 07:42:21;;;;;;;;;1.25;1.25;;;;;14.26;64.29;102394.19;5031340;28;9398;-69
2023/06/05 07:44:48;;;;;;;;;1.00;1.00;;;;;14.25;64.67;102397.91;5031331;28;9378;-69
2023/06/05 07:47:15;;;;;;;;;1.00;1.00;;;;;14.27;64.60;102395.03;5048219;28;9396;-69
2023/06/05 07:49:41;;;;;;;;;0.67;0.67;;;;;14.31;64.31;102397.19;5048843;28;9394;-69
2023/06/05 07:52:08;;;;;;;;;2.00;2.00;;;;;14.35;64.07;102408.53;5031683;28;9369;-69
2023/06/05 07:54:34;;;;;;;;;2.00;2.00;;;;;14.40;63.99;102411.53;5048895;28;9378;-70
2023/06/05 07:57:04;;;;;;;;;2.00;2.00;;;;;14.41;63.43;102402.34;5038479;28;9528;-69
2023/06/05 07:59:32;;;;;;;;;1.00;1.00;;;;;14.38;63.50;102400.03;5046240;28;9525;-69
2023/06/05 08:01:59;;;;;;;;;5.25;3.00;;;;;14.39;63.62;102396.28;5049208;28;9383;-69
2023/06/05 08:04:27;;;;;;;;;6.00;5.75;;;;;14.47;64.06;102407.06;5047901;28;9450;-69
2023/06/05 08:06:54;;;;;;;;;5.75;5.75;;;;;14.55;63.06;102404.31;5045973;28;9446;-69
2023/06/05 08:09:21;;;;;;;;;2.00;2.00;;;;;14.60;63.32;102403.78;5048226;28;9541;-69
2023/06/05 08:11:48;;;;;;;;;5.00;2.33;;;;;14.68;63.06;102408.28;5030771;28;9305;-68
2023/06/05 08:14:14;;;;;;;;;5.00;3.00;;;;;14.63;62.20;102410.72;5048706;28;9386;-69
2023/06/05 08:16:41;;;;;;;;;2.67;2.67;;;;;14.60;62.29;102401.06;5048198;28;9575;-69
2023/06/05 08:19:07;;;;;;;;;5.00;2.00;;;;;14.66;62.66;102392.19;5048732;28;9398;-69
2023/06/05 08:21:36;;;;;;;;;2.00;2.00;;;;;14.77;62.86;102397.16;5048820;28;9383;-69
2023/06/05 08:24:03;;;;;;;;;2.33;2.33;;;;;14.89;62.35;102394.84;5048668;28;9386;-68
2023/06/05 08:26:29;;;;;;;;;6.33;2.00;;;;;14.93;62.19;102403.47;5036794;28;9481;-69
2023/06/05 08:28:56;;;;;;;;;3.00;3.00;;;;;14.81;61.45;102395.78;5047526;28;9304;-68
2023/06/05 08:31:23;;;;;;;;;5.25;5.25;;;;;14.73;61.64;102395.84;5048001;28;9519;-69
2023/06/05 08:33:50;;;;;;;;;4.00;2.50;;;;;14.71;62.08;102397.09;5047556;28;9535;-68
2023/06/05 08:36:17;;;;;;;;;3.50;3.00;;;;;14.76;62.23;102400.91;5046974;28;9540;-68
2023/06/05 08:38:44;;;;;;;;;5.50;4.00;;;;;14.82;61.08;102392.03;5047915;28;9387;-69
2023/06/05 08:41:15;;;;;;;;;2.00;2.00;;;;;14.78;62.07;102390.72;5047156;28;9555;-69
2023/06/05 08:43:44;;;;;;;;;4.50;4.50;;;;;14.83;61.87;102388.31;5047921;28;9375;-69
2023/06/05 08:46:12;;;;;;;;;4.00;2.00;;;;;14.86;61.97;102386.25;5046562;28;9656;-69
2023/06/05 08:48:44;;;;;;;;;5.00;5.00;;;;;14.94;61.87;102386.16;5028290;28;9577;-69
2023/06/05 08:51:12;;;;;;;;;4.00;4.00;;;;;14.94;61.74;102381.56;5044283;28;9492;-69
2023/06/05 08:53:42;;;;;;;;;6.00;4.25;;;;;14.98;61.74;102390.19;5048379;28;9686;-69
2023/06/05 08:56:08;;;;;;;;;2.25;1.50;;;;;15.03;61.31;102385.91;5045536;28;9449;-70
2023/06/05 08:58:36;;;;;;;;;3.25;2.75;;;;;15.05;61.54;102383.00;5048172;28;10158;-69
2023/06/05 09:01:02;;;;;;;;;5.50;5.50;;;;;15.12;61.04;102389.38;5048022;28;9581;-69
2023/06/05 09:03:29;;;;;;;;;4.00;4.00;;;;;15.07;60.92;102379.09;5047171;28;9582;-69
2023/06/05 09:05:55;;;;;;;;;8.00;7.00;;;;;15.05;60.58;102380.28;5030308;28;9653;-69
2023/06/05 09:08:33;;;;;;;;;6.00;4.67;;;;;14.99;61.04;102375.59;5029596;28;9460;-69
2023/06/05 09:11:19;;;;;;;;;5.75;4.25;;;;;14.93;60.62;102379.06;5035642;28;9427;-69
2023/06/05 09:13:46;;;;;;;;;5.00;4.00;;;;;14.93;61.59;102387.19;5044179;28;10269;-68
2023/06/05 09:16:12;;;;;;;;;4.25;3.50;;;;;14.96;61.33;102382.25;5039315;28;9591;-68
2023/06/05 09:18:56;;;;;;;;;2.00;2.00;;;;;15.06;61.41;102376.53;5044312;28;9545;-68
2023/06/05 09:21:28;;;;;;;;;3.33;3.33;;;;;15.15;60.71;102386.28;5041283;28;9520;-69
2023/06/05 09:24:18;;;;;;;;;5.00;2.67;;;;;15.19;60.47;102376.75;5055558;28;9374;-69
2023/06/05 09:27:03;;;;;;;;;4.00;4.00;;;;;15.24;60.74;102382.44;5055250;28;9298;-69
2023/06/05 09:29:38;;;;;;;;;2.67;2.67;;;;;15.33;61.22;102370.47;5048100;28;9486;-70
2023/06/05 09:32:09;;;;;;;;;3.67;2.00;;;;;15.48;60.78;102377.75;5052665;28;9423;-70
2023/06/05 09:34:38;;;;;;;;;2.67;2.67;;;;;15.59;60.24;102380.81;5054406;28;9390;-70
2023/06/05 09:37:06;;;;;;;;;5.33;2.67;;;;;15.65;60.21;102373.81;5023178;28;9221;-70
2023/06/05 09:39:38;;;;;;;;;7.00;3.00;;;;;15.62;59.30;102379.59;5052895;28;9378;-69
2023/06/05 09:42:06;;;;;;;;;5.00;3.67;;;;;15.56;59.39;102380.38;5035915;28;9452;-71
2023/06/05 09:44:34;;;;;;;;;4.33;3.67;;;;;15.54;59.19;102380.53;5049636;28;9388;-71
2023/06/05 09:47:05;;;;;;;;;5.33;3.67;;;;;15.48;59.90;102377.75;5033063;28;9386;-71
2023/06/05 09:49:46;;;;;;;;;7.00;6.00;;;;;15.53;60.11;102378.88;5050774;28;9256;-71
2023/06/05 09:52:13;;;;;;;;;7.00;6.00;;;;;15.55;59.96;102384.09;5051338;28;10066;-70
2023/06/05 09:54:44;;;;;;;;;3.33;3.33;;;;;15.56;59.81;102380.38;5034156;28;9476;-70
2023/06/05 09:57:13;;;;;;;;;3.00;3.00;;;;;15.62;59.74;102376.03;5032218;28;9416;-68
2023/06/05 09:59:50;;;;;;;;;5.00;5.00;;;;;15.70;59.31;102379.50;5049568;28;9399;-68
2023/06/05 10:02:19;;;;;;;;;4.33;4.33;;;;;15.71;59.19;102364.91;5050101;28;9413;-68
2023/06/05 10:04:51;;;;;;;;;2.67;2.67;;;;;15.75;58.88;102368.91;5049961;28;9382;-67
2023/06/05 10:07:18;;;;;;;;;4.33;3.00;;;;;15.81;59.49;102362.72;5050347;28;10176;-67
2023/06/05 10:09:49;;;;;;;;;5.33;4.00;;;;;15.85;58.20;102367.78;5050428;28;9257;-70
2023/06/05 10:12:16;;;;;;;;;5.00;4.33;;;;;15.72;59.11;102355.75;5050772;28;10149;-70
2023/06/05 10:14:43;;;;;;;;;6.00;6.00;;;;;15.78;59.58;102360.41;5050818;28;9443;-70
2023/06/05 10:17:13;;;;;;;;;5.00;5.00;;;;;15.86;59.47;102356.72;5052107;28;9359;-71
2023/06/05 10:19:44;;;;;;;;;4.00;3.00;;;;;15.88;58.59;102360.09;5051126;28;9236;-69
2023/06/05 10:22:11;;;;;;;;;3.67;3.67;;;;;15.83;58.51;102362.53;5034462;28;9323;-68
2023/06/05 10:24:44;;;;;;;;;4.00;3.67;;;;;15.80;59.18;102368.38;5050910;28;9317;-68
2023/06/05 10:27:25;;;;;;;;;4.33;4.33;;;;;15.86;59.44;102356.72;5052245;28;9217;-69
2023/06/05 10:30:19;;;;;;;;;3.00;3.00;;;;;15.99;58.97;102353.31;5052307;28;9060;-69
2023/06/05 10:33:03;;;;;;;;;4.00;4.00;;;;;16.03;58.50;102352.72;5051181;28;9246;-69
2023/06/05 10:35:32;;;;;;;;;4.00;4.00;;;;;15.98;58.55;102357.91;5051594;28;9305;-69
2023/06/05 10:38:34;;;;;;;;;4.00;4.00;;;;;15.91;59.17;102348.00;5051963;28;9166;-70
2023/06/05 10:41:03;;;;;;;;;5.00;5.00;;;;;15.91;58.94;102367.00;5028327;28;9351;-69
2023/06/05 10:43:47;;;;;;;;;5.67;3.00;;;;;15.87;59.39;102349.41;5045990;28;9328;-69
2023/06/05 10:46:30;;;;;;;;;6.00;5.33;;;;;15.92;59.36;102355.97;5051571;28;9956;-69
2023/06/05 10:49:15;;;;;;;;;7.25;7.25;;;;;16.03;59.60;102355.44;5044127;28;9405;-69
2023/06/05 10:51:46;;;;;;;;;5.67;4.33;;;;;15.98;58.90;102351.63;5072793;22;9514;-66
2023/06/05 10:54:23;;;;;;;;;5.00;5.00;;;;;16.00;59.38;102341.41;5041632;28;9308;-66
2023/06/05 10:56:57;;;;;;;;;5.67;4.33;;;;;16.05;59.59;102339.78;5059461;28;9176;-66
2023/06/05 10:59:30;;;;;;;;;7.00;5.00;;;;;16.17;58.94;102353.72;5029987;28;9248;-66
2023/06/05 11:02:11;;;;;;;;;4.33;4.33;;;;;16.25;58.57;102342.72;5050078;28;9290;-66
2023/06/05 11:04:47;;;;;;;;;8.33;5.33;;;;;16.27;59.09;102342.50;5033964;28;9257;-67
2023/06/05 11:07:22;;;;;;;;;7.67;7.00;;;;;16.30;59.04;102345.66;5040749;28;9469;-66
2023/06/05 11:10:09;;;;;;;;;4.33;3.00;;;;;16.37;58.67;102345.75;5040947;28;9221;-67
2023/06/05 11:12:38;;;;;;;;;3.67;3.67;;;;;16.36;58.87;102337.75;5013476;28;9261;-67
2023/06/05 11:15:07;;;;;;;;;5.33;5.33;;;;;16.41;58.90;102338.03;5048825;28;9962;-68
2023/06/05 11:17:44;;;;;;;;;9.67;7.00;;;;;16.41;58.68;102338.03;5064316;28;9404;-67
2023/06/05 11:20:23;;;;;;;;;9.33;5.67;;;;;16.41;59.26;102332.59;5033302;28;9555;-67
2023/06/05 11:22:52;;;;;;;;;2.67;2.67;;;;;16.46;59.34;102335.56;5033149;28;9228;-67
2023/06/05 11:25:24;;;;;;;;;5.33;5.33;;;;;16.58;58.71;102336.69;5050709;28;9376;-67
2023/06/05 11:27:54;;;;;;;;;5.00;5.00;;;;;16.60;58.52;102326.44;5050968;28;9214;-67
2023/06/05 11:30:22;;;;;;;;;5.33;3.67;;;;;16.67;58.49;102338.22;5049440;28;9136;-66
2023/06/05 11:33:14;;;;;;;;;7.00;6.00;;;;;16.62;57.87;102329.84;5050796;28;9390;-68
2023/06/05 11:35:44;;;;;;;;;6.00;6.00;;;;;16.63;58.50;102322.50;5045846;28;9332;-68
2023/06/05 11:38:18;;;;;;;;;5.33;3.67;;;;;16.69;58.71;102329.84;5013462;28;9293;-68
2023/06/05 11:40:49;;;;;;;;;6.33;6.33;;;;;16.74;58.10;102325.56;5039093;28;9231;-67